x

Shp - Shell Point, Fl (shpf1) Weather Station

9:54am - Mon 27th Jun 2016 All times are CDT. -5 hours from GMT.

  • Wind
    5mph, 8mph gusts
  • Air Temp 83°f
  • Sea Pressure 1017.9mb
  • Shp - Shell Point, Fl
  • Shp - Shell Point, Fl

More Historic Weather Station data

Upgrade to MSW Pro to gain access to the past 30 days of data for over 8000 Wavebouys and Weather Stations around the globe.

Join Pro

Comparision Forecast

View Surf forecast
   
Mon 06/27 9:54am 5 8 mph 1017.9mb 83f
9:48am 5 7 mph 1018mb 83f
8:54am 5 11 mph 1018.2mb 82f
8:48am 6 10 mph 1018.3mb 81f
7:54am 6 9 mph 1018.5mb 78f
7:48am 6 8 mph 1018.6mb 77f
6:54am 6 9 mph 1017.9mb 74f
6:48am 6 8 mph 1017.9mb 74f
5:54am 6 7 mph 1017.7mb 73f
5:48am 6 8 mph 1017.7mb 73f
4:54am 6 8 mph 1017.8mb 73f
4:48am 6 8 mph 1017.8mb 73f
3:54am 5 6 mph 1017.1mb 74f
3:48am 5 6 mph 1017mb 74f
2:54am 3 6 mph 1016.9mb 74f
2:48am 3 6 mph 1016.9mb 74f
1:54am 5 6 mph 1017mb 76f
1:48am 3 5 mph 1017mb 77f
12:54am 3 7 mph 1016.9mb 77f
12:48am 3 6 mph 1017mb 77f
Sun 06/26 11:54pm 2 6 mph 1017.6mb 78f
11:48pm 5 7 mph 1017.6mb 78f
10:54pm 5 10 mph 1016.6mb 78f
10:48pm 3 7 mph 1016.7mb 78f
9:54pm 7 13 mph 1016.6mb 79f
9:48pm 6 11 mph 1016.7mb 79f
8:54pm 5 7 mph 1016.4mb 79f
8:48pm 5 8 mph 1016.6mb 79f
7:54pm 6 10 mph 1017.6mb 78f
7:48pm 7 10 mph 1017.5mb 78f
5:54pm 6 7 mph 1017.7mb 86f
5:48pm 7 8 mph 1017.5mb 86f
4:54pm 10 14 mph 1016.2mb 87f
4:48pm 9 13 mph 1016.2mb 87f
3:54pm 9 14 mph 1016.5mb 87f
3:48pm 10 15 mph 1016.5mb 87f
2:54pm 13 16 mph 1016.4mb 88f
2:48pm 11 16 mph 1016.4mb 89f
1:54pm 13 17 mph 1017.2mb 87f
1:48pm 14 17 mph 1017.3mb 87f
12:54pm 14 16 mph 1017.8mb 87f
12:48pm 14 16 mph 1017.9mb 87f
11:54am 10 13 mph 1018.2mb 87f
11:48am 11 13 mph 1018.2mb 87f
10:54am 6 8 mph 1018.7mb 88f
10:48am 6 10 mph 1018.7mb 89f
9:54am 6 7 mph 1018.7mb 86f
9:48am 6 7 mph 1018.7mb 87f
8:54am 6 9 mph 1018.6mb 84f
8:48am 6 8 mph 1018.7mb 84f
7:54am 5 7 mph 1018.7mb 81f
7:48am 5 7 mph 1018.6mb 80f
6:54am 3 6 mph 1018.5mb 78f
6:48am 3 5 mph 1018.4mb 77f
5:54am 2 3 mph 1018mb 76f
5:48am 2 5 mph 1018mb 76f
4:54am 3 5 mph 1017.5mb 77f
4:48am 5 7 mph 1017.4mb 77f
3:54am 6 9 mph 1017mb 78f
3:48am 5 8 mph 1017mb 78f
2:54am 5 6 mph 1016.7mb 77f
2:48am 5 8 mph 1016.7mb 77f
1:54am 5 6 mph 1017mb 78f
1:48am 5 8 mph 1017mb 78f
12:54am 7 8 mph 1017.2mb 80f
12:48am 6 9 mph 1017.2mb 80f
Sat 06/25 11:54pm 6 7 mph 1017.3mb 80f
11:48pm 5 8 mph 1017.3mb 80f
10:54pm 8 10 mph 1017.2mb 82f
10:48pm 8 10 mph 1017.1mb 82f
9:54pm 13 15 mph 1016.9mb 83f
9:48pm 11 15 mph 1016.7mb 84f
8:54pm 11 14 mph 1016.6mb 85f
8:48pm 10 13 mph 1016.6mb 84f
7:54pm 10 15 mph 1016.3mb 85f
7:48pm 11 15 mph 1016.4mb 85f
6:54pm 13 15 mph 1016.1mb 86f
6:48pm 14 16 mph 1016.1mb 86f
5:54pm 14 16 mph 1015.6mb 86f
5:48pm 14 17 mph 1015.6mb 86f
4:54pm 14 16 mph 1015.8mb 86f
4:48pm 14 16 mph 1015.9mb 87f
3:54pm 14 18 mph 1016.4mb 87f
3:48pm 14 16 mph 1016.5mb 87f
2:54pm 13 17 mph 1017mb 88f
2:48pm 13 17 mph 1017mb 88f
1:54pm 13 18 mph 1017.2mb 87f
1:48pm 13 16 mph 1017.3mb 87f
12:54pm 14 18 mph 1017.5mb 86f
12:48pm 14 16 mph 1017.5mb 86f
11:54am 10 11 mph 1017.9mb 87f
11:48am 10 14 mph 1018mb 87f
9:54am 5 6 mph 1018.4mb 85f
9:48am 6 7 mph 1018.5mb 84f
8:54am 3 6 mph 1018.7mb 83f
8:48am 5 8 mph 1018.7mb 83f
7:54am 7 9 mph 1018.7mb 81f
7:48am 7 10 mph 1018.6mb 80f
6:54am 6 8 mph 1018.3mb 77f
6:48am 5 6 mph 1018.1mb 76f
5:54am 5 7 mph 1017.6mb 76f
5:48am 5 7 mph 1017.5mb 76f
4:54am 6 8 mph 1016.9mb 77f
4:48am 6 7 mph 1016.9mb 77f
3:54am 5 6 mph 1016.4mb 77f
3:48am 5 6 mph 1016.4mb 77f
2:54am 7 9 mph 1016.2mb 78f
2:48am 8 10 mph 1016.2mb 78f
1:54am 7 9 mph 1016.2mb 78f
1:48am 6 9 mph 1016.2mb 78f
12:54am 8 10 mph 1016.7mb 80f
12:48am 9 11 mph 1016.8mb 80f
Fri 06/24 11:54pm 7 10 mph 1016.6mb 80f
11:48pm 8 11 mph 1016.7mb 80f
9:54pm 10 13 mph 1016.8mb 83f
9:48pm 10 13 mph 1016.8mb 83f
8:54pm 11 14 mph 1016mb 84f
8:48pm 11 14 mph 1015.9mb 85f
7:54pm 14 17 mph 1015.8mb 85f
7:48pm 13 15 mph 1015.8mb 85f
6:54pm 13 16 mph 1015.6mb 85f
6:48pm 13 15 mph 1015.6mb 86f
5:54pm 10 15 mph 1015.7mb 87f
5:48pm 11 15 mph 1015.6mb 87f
4:54pm 13 18 mph 1016mb 87f
4:48pm 13 16 mph 1016mb 87f
3:54pm 13 17 mph 1016.4mb 86f
3:48pm 13 17 mph 1016.5mb 87f